sensor_id;sensor_type;location;lat;lon;timestamp;P1;durP1;ratioP1;P2;durP2;ratioP2
10874;SDS011;5490;52.200;8.786;2023-04-24T00:00:57;0.82;;;0.82;;
10874;SDS011;5490;52.200;8.786;2023-04-24T00:03:26;4.10;;;0.98;;
10874;SDS011;5490;52.200;8.786;2023-04-24T00:05:53;0.70;;;0.70;;
10874;SDS011;5490;52.200;8.786;2023-04-24T00:08:20;0.40;;;0.40;;
10874;SDS011;5490;52.200;8.786;2023-04-24T00:10:47;0.70;;;0.70;;
10874;SDS011;5490;52.200;8.786;2023-04-24T00:13:15;1.08;;;0.70;;
10874;SDS011;5490;52.200;8.786;2023-04-24T00:15:42;3.63;;;0.77;;
10874;SDS011;5490;52.200;8.786;2023-04-24T00:18:09;0.63;;;0.63;;
10874;SDS011;5490;52.200;8.786;2023-04-24T00:20:35;0.45;;;0.45;;
10874;SDS011;5490;52.200;8.786;2023-04-24T00:23:02;0.75;;;0.60;;
10874;SDS011;5490;52.200;8.786;2023-04-24T00:25:29;0.40;;;0.40;;
10874;SDS011;5490;52.200;8.786;2023-04-24T00:27:56;0.30;;;0.30;;
10874;SDS011;5490;52.200;8.786;2023-04-24T00:30:24;0.32;;;0.32;;
10874;SDS011;5490;52.200;8.786;2023-04-24T00:32:50;0.50;;;0.50;;
10874;SDS011;5490;52.200;8.786;2023-04-24T00:35:17;0.30;;;0.30;;
10874;SDS011;5490;52.200;8.786;2023-04-24T00:37:44;0.65;;;0.50;;
10874;SDS011;5490;52.200;8.786;2023-04-24T00:40:11;0.38;;;0.38;;
10874;SDS011;5490;52.200;8.786;2023-04-24T00:42:38;0.52;;;0.52;;
10874;SDS011;5490;52.200;8.786;2023-04-24T00:45:06;0.55;;;0.32;;
10874;SDS011;5490;52.200;8.786;2023-04-24T00:47:34;0.40;;;0.40;;
10874;SDS011;5490;52.200;8.786;2023-04-24T00:50:02;0.30;;;0.30;;
10874;SDS011;5490;52.200;8.786;2023-04-24T00:52:29;0.40;;;0.40;;
10874;SDS011;5490;52.200;8.786;2023-04-24T00:54:57;1.00;;;0.40;;
10874;SDS011;5490;52.200;8.786;2023-04-24T00:57:23;0.30;;;0.30;;
10874;SDS011;5490;52.200;8.786;2023-04-24T00:59:50;0.75;;;0.50;;
10874;SDS011;5490;52.200;8.786;2023-04-24T01:02:18;0.45;;;0.45;;
10874;SDS011;5490;52.200;8.786;2023-04-24T01:04:49;0.43;;;0.40;;
10874;SDS011;5490;52.200;8.786;2023-04-24T01:07:17;0.73;;;0.73;;
10874;SDS011;5490;52.200;8.786;2023-04-24T01:09:46;0.50;;;0.40;;
10874;SDS011;5490;52.200;8.786;2023-04-24T01:12:15;0.50;;;0.50;;
10874;SDS011;5490;52.200;8.786;2023-04-24T01:14:42;0.40;;;0.40;;
10874;SDS011;5490;52.200;8.786;2023-04-24T01:17:10;0.40;;;0.40;;
10874;SDS011;5490;52.200;8.786;2023-04-24T01:19:37;1.13;;;0.43;;
10874;SDS011;5490;52.200;8.786;2023-04-24T01:22:08;0.40;;;0.40;;
10874;SDS011;5490;52.200;8.786;2023-04-24T01:24:38;0.43;;;0.43;;
10874;SDS011;5490;52.200;8.786;2023-04-24T01:27:05;0.50;;;0.50;;
10874;SDS011;5490;52.200;8.786;2023-04-24T01:29:32;0.40;;;0.40;;
10874;SDS011;5490;52.200;8.786;2023-04-24T01:31:59;0.50;;;0.50;;
10874;SDS011;5490;52.200;8.786;2023-04-24T01:34:26;0.50;;;0.50;;
10874;SDS011;5490;52.200;8.786;2023-04-24T01:36:53;0.30;;;0.30;;
10874;SDS011;5490;52.200;8.786;2023-04-24T01:39:22;1.83;;;0.50;;
10874;SDS011;5490;52.200;8.786;2023-04-24T01:41:50;0.43;;;0.43;;
10874;SDS011;5490;52.200;8.786;2023-04-24T01:44:17;0.60;;;0.60;;
10874;SDS011;5490;52.200;8.786;2023-04-24T01:46:44;0.82;;;0.75;;
10874;SDS011;5490;52.200;8.786;2023-04-24T01:49:10;0.60;;;0.60;;
10874;SDS011;5490;52.200;8.786;2023-04-24T01:51:37;0.50;;;0.50;;
10874;SDS011;5490;52.200;8.786;2023-04-24T01:54:04;1.55;;;0.90;;
10874;SDS011;5490;52.200;8.786;2023-04-24T01:56:33;0.70;;;0.70;;
10874;SDS011;5490;52.200;8.786;2023-04-24T01:59:00;0.70;;;0.70;;
10874;SDS011;5490;52.200;8.786;2023-04-24T02:01:32;0.93;;;0.90;;
10874;SDS011;5490;52.200;8.786;2023-04-24T02:04:00;0.77;;;0.77;;
10874;SDS011;5490;52.200;8.786;2023-04-24T02:06:27;0.73;;;0.57;;
10874;SDS011;5490;52.200;8.786;2023-04-24T02:08:56;0.60;;;0.60;;
10874;SDS011;5490;52.200;8.786;2023-04-24T02:11:23;0.40;;;0.40;;
10874;SDS011;5490;52.200;8.786;2023-04-24T02:13:51;0.60;;;0.60;;
10874;SDS011;5490;52.200;8.786;2023-04-24T02:16:18;0.45;;;0.45;;
10874;SDS011;5490;52.200;8.786;2023-04-24T02:18:45;0.67;;;0.63;;
10874;SDS011;5490;52.200;8.786;2023-04-24T02:21:11;0.95;;;0.60;;
10874;SDS011;5490;52.200;8.786;2023-04-24T02:23:38;0.50;;;0.50;;
10874;SDS011;5490;52.200;8.786;2023-04-24T02:26:05;0.60;;;0.60;;
10874;SDS011;5490;52.200;8.786;2023-04-24T02:28:32;1.27;;;0.70;;
10874;SDS011;5490;52.200;8.786;2023-04-24T02:31:00;0.60;;;0.60;;
10874;SDS011;5490;52.200;8.786;2023-04-24T02:33:27;2.00;;;0.80;;
10874;SDS011;5490;52.200;8.786;2023-04-24T02:35:53;0.53;;;0.53;;
10874;SDS011;5490;52.200;8.786;2023-04-24T02:38:20;0.87;;;0.80;;
10874;SDS011;5490;52.200;8.786;2023-04-24T02:40:50;0.87;;;0.87;;
10874;SDS011;5490;52.200;8.786;2023-04-24T02:43:17;0.80;;;0.50;;
10874;SDS011;5490;52.200;8.786;2023-04-24T02:45:44;0.83;;;0.60;;
10874;SDS011;5490;52.200;8.786;2023-04-24T02:48:13;0.73;;;0.73;;
10874;SDS011;5490;52.200;8.786;2023-04-24T02:50:39;0.70;;;0.70;;
10874;SDS011;5490;52.200;8.786;2023-04-24T02:53:06;1.48;;;1.38;;
10874;SDS011;5490;52.200;8.786;2023-04-24T02:55:33;0.93;;;0.88;;
10874;SDS011;5490;52.200;8.786;2023-04-24T02:58:00;0.80;;;0.80;;
10874;SDS011;5490;52.200;8.786;2023-04-24T03:00:28;0.87;;;0.87;;
10874;SDS011;5490;52.200;8.786;2023-04-24T03:02:55;1.47;;;1.37;;
10874;SDS011;5490;52.200;8.786;2023-04-24T03:05:23;1.03;;;0.93;;
10874;SDS011;5490;52.200;8.786;2023-04-24T03:07:50;0.83;;;0.83;;
10874;SDS011;5490;52.200;8.786;2023-04-24T03:10:17;1.23;;;1.00;;
10874;SDS011;5490;52.200;8.786;2023-04-24T03:12:44;1.23;;;1.00;;
10874;SDS011;5490;52.200;8.786;2023-04-24T03:15:11;1.20;;;1.02;;
10874;SDS011;5490;52.200;8.786;2023-04-24T03:17:37;0.97;;;0.60;;
10874;SDS011;5490;52.200;8.786;2023-04-24T03:20:05;0.80;;;0.80;;
10874;SDS011;5490;52.200;8.786;2023-04-24T03:22:34;0.60;;;0.60;;
10874;SDS011;5490;52.200;8.786;2023-04-24T03:25:01;0.30;;;0.30;;
10874;SDS011;5490;52.200;8.786;2023-04-24T03:27:30;1.00;;;0.90;;
10874;SDS011;5490;52.200;8.786;2023-04-24T03:29:56;0.60;;;0.60;;
10874;SDS011;5490;52.200;8.786;2023-04-24T03:32:23;0.50;;;0.50;;
10874;SDS011;5490;52.200;8.786;2023-04-24T03:34:50;1.00;;;1.00;;
10874;SDS011;5490;52.200;8.786;2023-04-24T03:37:16;0.60;;;0.60;;
10874;SDS011;5490;52.200;8.786;2023-04-24T03:39:45;3.23;;;0.60;;
10874;SDS011;5490;52.200;8.786;2023-04-24T03:42:11;1.07;;;0.70;;
10874;SDS011;5490;52.200;8.786;2023-04-24T03:44:38;0.67;;;0.67;;
10874;SDS011;5490;52.200;8.786;2023-04-24T03:47:05;0.90;;;0.80;;
10874;SDS011;5490;52.200;8.786;2023-04-24T03:49:31;0.87;;;0.87;;
10874;SDS011;5490;52.200;8.786;2023-04-24T03:51:58;0.80;;;0.75;;
10874;SDS011;5490;52.200;8.786;2023-04-24T03:54:25;0.53;;;0.53;;
10874;SDS011;5490;52.200;8.786;2023-04-24T03:56:53;0.60;;;0.55;;
10874;SDS011;5490;52.200;8.786;2023-04-24T03:59:20;0.68;;;0.68;;
10874;SDS011;5490;52.200;8.786;2023-04-24T04:01:47;0.87;;;0.63;;
10874;SDS011;5490;52.200;8.786;2023-04-24T04:04:13;3.00;;;1.00;;
10874;SDS011;5490;52.200;8.786;2023-04-24T04:06:40;1.05;;;0.90;;
10874;SDS011;5490;52.200;8.786;2023-04-24T04:09:07;1.05;;;0.93;;
10874;SDS011;5490;52.200;8.786;2023-04-24T04:11:34;0.50;;;0.50;;
10874;SDS011;5490;52.200;8.786;2023-04-24T04:14:03;2.30;;;0.88;;
10874;SDS011;5490;52.200;8.786;2023-04-24T04:16:30;0.83;;;0.83;;
10874;SDS011;5490;52.200;8.786;2023-04-24T04:18:57;0.80;;;0.80;;
10874;SDS011;5490;52.200;8.786;2023-04-24T04:21:24;0.75;;;0.75;;
10874;SDS011;5490;52.200;8.786;2023-04-24T04:23:52;0.93;;;0.80;;
10874;SDS011;5490;52.200;8.786;2023-04-24T04:26:19;0.80;;;0.80;;
10874;SDS011;5490;52.200;8.786;2023-04-24T04:28:46;0.80;;;0.80;;
10874;SDS011;5490;52.200;8.786;2023-04-24T04:31:15;1.37;;;0.83;;
10874;SDS011;5490;52.200;8.786;2023-04-24T04:33:42;1.10;;;1.00;;
10874;SDS011;5490;52.200;8.786;2023-04-24T04:36:08;0.80;;;0.80;;
10874;SDS011;5490;52.200;8.786;2023-04-24T04:38:35;1.35;;;1.25;;
10874;SDS011;5490;52.200;8.786;2023-04-24T04:41:02;1.75;;;1.38;;
10874;SDS011;5490;52.200;8.786;2023-04-24T04:43:28;1.58;;;1.20;;
10874;SDS011;5490;52.200;8.786;2023-04-24T04:45:56;1.93;;;1.20;;
10874;SDS011;5490;52.200;8.786;2023-04-24T04:48:27;3.43;;;1.23;;
10874;SDS011;5490;52.200;8.786;2023-04-24T04:50:53;1.48;;;1.38;;
10874;SDS011;5490;52.200;8.786;2023-04-24T04:53:20;1.20;;;1.10;;
10874;SDS011;5490;52.200;8.786;2023-04-24T04:55:47;1.85;;;1.08;;
10874;SDS011;5490;52.200;8.786;2023-04-24T04:58:14;1.30;;;1.20;;
10874;SDS011;5490;52.200;8.786;2023-04-24T05:00:41;1.48;;;1.20;;
10874;SDS011;5490;52.200;8.786;2023-04-24T05:03:07;2.08;;;1.38;;
10874;SDS011;5490;52.200;8.786;2023-04-24T05:05:36;2.75;;;1.45;;
10874;SDS011;5490;52.200;8.786;2023-04-24T05:08:05;1.85;;;1.50;;
10874;SDS011;5490;52.200;8.786;2023-04-24T05:10:32;0.82;;;0.80;;
10874;SDS011;5490;52.200;8.786;2023-04-24T05:13:00;1.58;;;1.38;;
10874;SDS011;5490;52.200;8.786;2023-04-24T05:15:27;1.98;;;1.75;;
10874;SDS011;5490;52.200;8.786;2023-04-24T05:17:53;3.13;;;1.83;;
10874;SDS011;5490;52.200;8.786;2023-04-24T05:20:20;4.25;;;2.03;;
10874;SDS011;5490;52.200;8.786;2023-04-24T05:22:49;2.78;;;2.10;;
10874;SDS011;5490;52.200;8.786;2023-04-24T05:25:16;3.05;;;2.35;;
10874;SDS011;5490;52.200;8.786;2023-04-24T05:27:43;4.20;;;2.75;;
10874;SDS011;5490;52.200;8.786;2023-04-24T05:30:11;4.10;;;3.03;;
10874;SDS011;5490;52.200;8.786;2023-04-24T05:32:38;2.80;;;2.35;;
10874;SDS011;5490;52.200;8.786;2023-04-24T05:35:05;3.20;;;2.60;;
10874;SDS011;5490;52.200;8.786;2023-04-24T05:37:32;4.82;;;3.30;;
10874;SDS011;5490;52.200;8.786;2023-04-24T05:40:01;4.68;;;3.03;;
10874;SDS011;5490;52.200;8.786;2023-04-24T05:42:30;5.57;;;3.38;;
10874;SDS011;5490;52.200;8.786;2023-04-24T05:44:56;4.15;;;3.30;;
10874;SDS011;5490;52.200;8.786;2023-04-24T05:47:23;3.53;;;2.92;;
10874;SDS011;5490;52.200;8.786;2023-04-24T05:49:51;5.18;;;3.65;;
10874;SDS011;5490;52.200;8.786;2023-04-24T05:52:18;4.20;;;3.35;;
10874;SDS011;5490;52.200;8.786;2023-04-24T05:54:45;3.77;;;2.67;;
10874;SDS011;5490;52.200;8.786;2023-04-24T05:57:13;5.32;;;2.85;;
10874;SDS011;5490;52.200;8.786;2023-04-24T05:59:40;4.65;;;3.25;;
10874;SDS011;5490;52.200;8.786;2023-04-24T06:02:07;7.95;;;3.58;;
10874;SDS011;5490;52.200;8.786;2023-04-24T06:04:34;5.43;;;3.40;;
10874;SDS011;5490;52.200;8.786;2023-04-24T06:07:02;8.97;;;3.83;;
10874;SDS011;5490;52.200;8.786;2023-04-24T06:09:29;8.27;;;4.20;;
10874;SDS011;5490;52.200;8.786;2023-04-24T06:11:56;4.93;;;3.70;;
10874;SDS011;5490;52.200;8.786;2023-04-24T06:14:25;4.60;;;4.07;;
10874;SDS011;5490;52.200;8.786;2023-04-24T06:16:51;4.68;;;3.83;;
10874;SDS011;5490;52.200;8.786;2023-04-24T06:19:18;4.22;;;3.20;;
10874;SDS011;5490;52.200;8.786;2023-04-24T06:21:45;4.32;;;3.35;;
10874;SDS011;5490;52.200;8.786;2023-04-24T06:24:13;5.50;;;3.92;;
10874;SDS011;5490;52.200;8.786;2023-04-24T06:26:40;5.30;;;3.72;;
10874;SDS011;5490;52.200;8.786;2023-04-24T06:29:07;8.23;;;4.33;;
10874;SDS011;5490;52.200;8.786;2023-04-24T06:31:36;5.45;;;3.55;;
10874;SDS011;5490;52.200;8.786;2023-04-24T06:34:03;5.82;;;4.03;;
10874;SDS011;5490;52.200;8.786;2023-04-24T06:36:30;6.35;;;3.83;;
10874;SDS011;5490;52.200;8.786;2023-04-24T06:38:59;8.43;;;4.60;;
10874;SDS011;5490;52.200;8.786;2023-04-24T06:41:26;6.32;;;4.38;;
10874;SDS011;5490;52.200;8.786;2023-04-24T06:43:54;5.85;;;4.03;;
10874;SDS011;5490;52.200;8.786;2023-04-24T06:46:21;5.43;;;4.15;;
10874;SDS011;5490;52.200;8.786;2023-04-24T06:48:50;4.53;;;3.33;;
10874;SDS011;5490;52.200;8.786;2023-04-24T06:51:16;6.72;;;3.72;;
10874;SDS011;5490;52.200;8.786;2023-04-24T06:53:43;6.32;;;4.15;;
10874;SDS011;5490;52.200;8.786;2023-04-24T06:56:10;6.72;;;4.47;;
10874;SDS011;5490;52.200;8.786;2023-04-24T06:58:37;5.65;;;4.70;;
10874;SDS011;5490;52.200;8.786;2023-04-24T07:01:03;4.57;;;3.92;;
10874;SDS011;5490;52.200;8.786;2023-04-24T07:03:30;5.40;;;3.42;;
10874;SDS011;5490;52.200;8.786;2023-04-24T07:05:58;4.82;;;3.78;;
10874;SDS011;5490;52.200;8.786;2023-04-24T07:08:25;7.20;;;4.75;;
10874;SDS011;5490;52.200;8.786;2023-04-24T07:10:52;4.13;;;3.50;;
10874;SDS011;5490;52.200;8.786;2023-04-24T07:13:18;6.55;;;4.38;;
10874;SDS011;5490;52.200;8.786;2023-04-24T07:15:45;6.55;;;4.20;;
10874;SDS011;5490;52.200;8.786;2023-04-24T07:18:14;7.43;;;4.20;;
10874;SDS011;5490;52.200;8.786;2023-04-24T07:20:40;7.43;;;4.35;;
10874;SDS011;5490;52.200;8.786;2023-04-24T07:23:08;4.65;;;3.95;;
10874;SDS011;5490;52.200;8.786;2023-04-24T07:25:35;7.80;;;5.03;;
10874;SDS011;5490;52.200;8.786;2023-04-24T07:28:03;9.20;;;4.15;;
10874;SDS011;5490;52.200;8.786;2023-04-24T07:30:30;6.88;;;4.43;;
10874;SDS011;5490;52.200;8.786;2023-04-24T07:32:57;7.72;;;4.38;;
10874;SDS011;5490;52.200;8.786;2023-04-24T07:35:24;6.35;;;4.35;;
10874;SDS011;5490;52.200;8.786;2023-04-24T07:37:51;6.22;;;4.32;;
10874;SDS011;5490;52.200;8.786;2023-04-24T07:40:20;5.65;;;4.40;;
10874;SDS011;5490;52.200;8.786;2023-04-24T07:42:47;6.28;;;4.22;;
10874;SDS011;5490;52.200;8.786;2023-04-24T07:45:14;5.78;;;4.15;;
10874;SDS011;5490;52.200;8.786;2023-04-24T07:47:41;5.38;;;4.00;;
10874;SDS011;5490;52.200;8.786;2023-04-24T07:50:10;6.03;;;4.25;;
10874;SDS011;5490;52.200;8.786;2023-04-24T07:52:37;6.97;;;4.70;;
10874;SDS011;5490;52.200;8.786;2023-04-24T07:55:04;4.78;;;3.25;;
10874;SDS011;5490;52.200;8.786;2023-04-24T07:57:33;9.60;;;3.13;;
10874;SDS011;5490;52.200;8.786;2023-04-24T08:00:00;11.27;;;4.18;;
10874;SDS011;5490;52.200;8.786;2023-04-24T08:02:27;4.30;;;3.35;;
10874;SDS011;5490;52.200;8.786;2023-04-24T08:04:54;5.30;;;3.70;;
10874;SDS011;5490;52.200;8.786;2023-04-24T08:07:21;5.97;;;3.85;;
10874;SDS011;5490;52.200;8.786;2023-04-24T08:09:49;4.32;;;3.47;;
10874;SDS011;5490;52.200;8.786;2023-04-24T08:12:16;8.50;;;3.60;;
10874;SDS011;5490;52.200;8.786;2023-04-24T08:14:44;4.30;;;2.88;;
10874;SDS011;5490;52.200;8.786;2023-04-24T08:17:10;3.72;;;2.80;;
10874;SDS011;5490;52.200;8.786;2023-04-24T08:19:37;6.53;;;3.15;;
10874;SDS011;5490;52.200;8.786;2023-04-24T08:22:08;4.82;;;2.92;;
10874;SDS011;5490;52.200;8.786;2023-04-24T08:24:34;5.40;;;3.30;;
10874;SDS011;5490;52.200;8.786;2023-04-24T08:27:01;4.60;;;3.60;;
10874;SDS011;5490;52.200;8.786;2023-04-24T08:29:28;3.78;;;3.20;;
10874;SDS011;5490;52.200;8.786;2023-04-24T08:31:56;4.05;;;2.72;;
10874;SDS011;5490;52.200;8.786;2023-04-24T08:34:23;3.40;;;3.08;;
10874;SDS011;5490;52.200;8.786;2023-04-24T08:36:50;3.85;;;2.72;;
10874;SDS011;5490;52.200;8.786;2023-04-24T08:39:17;5.55;;;2.60;;
10874;SDS011;5490;52.200;8.786;2023-04-24T08:41:44;2.70;;;2.22;;
10874;SDS011;5490;52.200;8.786;2023-04-24T08:44:12;3.40;;;2.75;;
10874;SDS011;5490;52.200;8.786;2023-04-24T08:46:42;3.42;;;2.28;;
10874;SDS011;5490;52.200;8.786;2023-04-24T08:49:12;3.95;;;3.15;;
10874;SDS011;5490;52.200;8.786;2023-04-24T08:51:41;2.58;;;2.13;;
10874;SDS011;5490;52.200;8.786;2023-04-24T08:54:08;4.68;;;2.80;;
10874;SDS011;5490;52.200;8.786;2023-04-24T08:56:36;2.97;;;2.65;;
10874;SDS011;5490;52.200;8.786;2023-04-24T08:59:04;2.90;;;2.70;;
10874;SDS011;5490;52.200;8.786;2023-04-24T09:01:32;5.38;;;2.83;;
10874;SDS011;5490;52.200;8.786;2023-04-24T09:04:01;3.05;;;2.53;;
10874;SDS011;5490;52.200;8.786;2023-04-24T09:06:30;68.22;;;6.07;;
10874;SDS011;5490;52.200;8.786;2023-04-24T09:08:58;9.85;;;2.67;;
10874;SDS011;5490;52.200;8.786;2023-04-24T09:11:27;1.95;;;1.73;;
10874;SDS011;5490;52.200;8.786;2023-04-24T09:13:54;2.03;;;1.83;;
10874;SDS011;5490;52.200;8.786;2023-04-24T09:16:21;2.30;;;1.95;;
10874;SDS011;5490;52.200;8.786;2023-04-24T09:18:49;1.77;;;1.67;;
10874;SDS011;5490;52.200;8.786;2023-04-24T09:21:16;2.03;;;1.90;;
10874;SDS011;5490;52.200;8.786;2023-04-24T09:23:44;2.47;;;1.70;;
10874;SDS011;5490;52.200;8.786;2023-04-24T09:26:11;1.65;;;1.50;;
10874;SDS011;5490;52.200;8.786;2023-04-24T09:28:39;5.53;;;1.65;;
10874;SDS011;5490;52.200;8.786;2023-04-24T09:31:07;4.70;;;2.08;;
10874;SDS011;5490;52.200;8.786;2023-04-24T09:33:35;1.25;;;1.20;;
10874;SDS011;5490;52.200;8.786;2023-04-24T09:36:02;1.63;;;1.52;;
10874;SDS011;5490;52.200;8.786;2023-04-24T09:38:31;1.42;;;1.33;;
10874;SDS011;5490;52.200;8.786;2023-04-24T09:41:00;1.80;;;1.70;;
10874;SDS011;5490;52.200;8.786;2023-04-24T09:43:28;1.52;;;1.20;;
10874;SDS011;5490;52.200;8.786;2023-04-24T09:45:55;2.33;;;1.90;;
10874;SDS011;5490;52.200;8.786;2023-04-24T09:48:29;1.70;;;1.38;;
10874;SDS011;5490;52.200;8.786;2023-04-24T09:50:57;1.33;;;1.23;;
10874;SDS011;5490;52.200;8.786;2023-04-24T09:53:24;1.77;;;1.27;;
10874;SDS011;5490;52.200;8.786;2023-04-24T09:55:51;1.38;;;1.27;;
10874;SDS011;5490;52.200;8.786;2023-04-24T09:58:20;1.20;;;1.10;;
10874;SDS011;5490;52.200;8.786;2023-04-24T10:00:53;1.20;;;1.10;;
10874;SDS011;5490;52.200;8.786;2023-04-24T10:03:23;1.45;;;1.35;;
10874;SDS011;5490;52.200;8.786;2023-04-24T10:05:51;1.90;;;1.30;;
10874;SDS011;5490;52.200;8.786;2023-04-24T10:08:18;1.45;;;1.35;;
10874;SDS011;5490;52.200;8.786;2023-04-24T10:10:45;1.50;;;1.23;;
10874;SDS011;5490;52.200;8.786;2023-04-24T10:13:13;1.35;;;1.25;;
10874;SDS011;5490;52.200;8.786;2023-04-24T10:15:42;1.40;;;1.13;;
10874;SDS011;5490;52.200;8.786;2023-04-24T10:18:09;1.13;;;1.08;;
10874;SDS011;5490;52.200;8.786;2023-04-24T10:20:37;1.45;;;1.35;;
10874;SDS011;5490;52.200;8.786;2023-04-24T10:23:05;1.40;;;1.30;;
10874;SDS011;5490;52.200;8.786;2023-04-24T10:25:33;1.67;;;1.58;;
10874;SDS011;5490;52.200;8.786;2023-04-24T10:28:02;1.10;;;1.10;;
10874;SDS011;5490;52.200;8.786;2023-04-24T10:30:30;1.10;;;1.10;;
10874;SDS011;5490;52.200;8.786;2023-04-24T10:33:01;0.90;;;0.90;;
10874;SDS011;5490;52.200;8.786;2023-04-24T10:35:30;0.95;;;0.90;;
10874;SDS011;5490;52.200;8.786;2023-04-24T10:37:59;1.40;;;1.30;;
10874;SDS011;5490;52.200;8.786;2023-04-24T10:40:30;1.20;;;1.10;;
10874;SDS011;5490;52.200;8.786;2023-04-24T10:42:59;1.20;;;1.10;;
10874;SDS011;5490;52.200;8.786;2023-04-24T10:45:31;1.17;;;0.90;;
10874;SDS011;5490;52.200;8.786;2023-04-24T10:47:58;1.02;;;1.02;;
10874;SDS011;5490;52.200;8.786;2023-04-24T10:50:28;1.15;;;1.05;;
10874;SDS011;5490;52.200;8.786;2023-04-24T10:53:11;1.55;;;1.30;;
10874;SDS011;5490;52.200;8.786;2023-04-24T10:55:39;0.90;;;0.90;;
10874;SDS011;5490;52.200;8.786;2023-04-24T10:58:11;1.95;;;0.98;;
10874;SDS011;5490;52.200;8.786;2023-04-24T11:00:38;1.70;;;0.90;;
10874;SDS011;5490;52.200;8.786;2023-04-24T11:03:07;0.95;;;0.95;;
10874;SDS011;5490;52.200;8.786;2023-04-24T11:05:53;1.27;;;1.17;;
10874;SDS011;5490;52.200;8.786;2023-04-24T11:08:23;1.60;;;1.48;;
10874;SDS011;5490;52.200;8.786;2023-04-24T11:10:56;1.17;;;1.08;;
10874;SDS011;5490;52.200;8.786;2023-04-24T11:13:25;1.27;;;1.17;;
10874;SDS011;5490;52.200;8.786;2023-04-24T11:16:12;1.88;;;1.60;;
10874;SDS011;5490;52.200;8.786;2023-04-24T11:18:41;1.60;;;1.45;;
10874;SDS011;5490;52.200;8.786;2023-04-24T11:21:12;1.60;;;1.40;;
10874;SDS011;5490;52.200;8.786;2023-04-24T11:23:42;1.67;;;1.58;;
10874;SDS011;5490;52.200;8.786;2023-04-24T11:26:12;2.28;;;1.40;;
10874;SDS011;5490;52.200;8.786;2023-04-24T11:28:46;2.97;;;1.58;;
10874;SDS011;5490;52.200;8.786;2023-04-24T11:31:36;3.75;;;1.70;;
10874;SDS011;5490;52.200;8.786;2023-04-24T11:34:08;1.73;;;1.63;;
10874;SDS011;5490;52.200;8.786;2023-04-24T11:36:42;2.30;;;2.10;;
10874;SDS011;5490;52.200;8.786;2023-04-24T11:39:09;1.70;;;1.60;;
10874;SDS011;5490;52.200;8.786;2023-04-24T11:41:36;1.90;;;1.80;;
10874;SDS011;5490;52.200;8.786;2023-04-24T11:44:05;1.70;;;1.60;;
10874;SDS011;5490;52.200;8.786;2023-04-24T11:46:33;1.88;;;1.70;;
10874;SDS011;5490;52.200;8.786;2023-04-24T11:49:02;1.83;;;1.70;;
10874;SDS011;5490;52.200;8.786;2023-04-24T11:51:30;1.63;;;1.52;;
10874;SDS011;5490;52.200;8.786;2023-04-24T11:53:58;4.50;;;1.80;;
10874;SDS011;5490;52.200;8.786;2023-04-24T11:56:25;6.95;;;2.60;;
10874;SDS011;5490;52.200;8.786;2023-04-24T11:58:52;3.33;;;2.42;;
10874;SDS011;5490;52.200;8.786;2023-04-24T12:01:20;2.35;;;1.88;;
10874;SDS011;5490;52.200;8.786;2023-04-24T12:03:47;1.80;;;1.50;;
10874;SDS011;5490;52.200;8.786;2023-04-24T12:06:16;2.25;;;2.00;;
10874;SDS011;5490;52.200;8.786;2023-04-24T12:08:45;1.52;;;1.42;;
10874;SDS011;5490;52.200;8.786;2023-04-24T12:11:14;1.88;;;1.50;;
10874;SDS011;5490;52.200;8.786;2023-04-24T12:13:43;1.75;;;1.55;;
10874;SDS011;5490;52.200;8.786;2023-04-24T12:16:10;1.63;;;1.20;;
10874;SDS011;5490;52.200;8.786;2023-04-24T12:18:41;1.33;;;1.23;;
10874;SDS011;5490;52.200;8.786;2023-04-24T12:21:15;1.20;;;1.10;;
10874;SDS011;5490;52.200;8.786;2023-04-24T12:23:43;1.02;;;0.82;;
10874;SDS011;5490;52.200;8.786;2023-04-24T12:26:10;1.10;;;1.00;;
10874;SDS011;5490;52.200;8.786;2023-04-24T12:28:38;1.73;;;0.93;;
10874;SDS011;5490;52.200;8.786;2023-04-24T12:31:06;0.70;;;0.70;;
10874;SDS011;5490;52.200;8.786;2023-04-24T12:33:33;4.25;;;0.90;;
10874;SDS011;5490;52.200;8.786;2023-04-24T12:36:01;1.55;;;0.73;;
10874;SDS011;5490;52.200;8.786;2023-04-24T12:38:29;0.63;;;0.63;;
10874;SDS011;5490;52.200;8.786;2023-04-24T12:41:02;0.77;;;0.70;;
10874;SDS011;5490;52.200;8.786;2023-04-24T12:43:30;1.08;;;0.82;;
10874;SDS011;5490;52.200;8.786;2023-04-24T12:45:58;1.17;;;1.00;;
10874;SDS011;5490;52.200;8.786;2023-04-24T12:48:25;0.80;;;0.73;;
10874;SDS011;5490;52.200;8.786;2023-04-24T12:50:52;2.33;;;0.73;;
10874;SDS011;5490;52.200;8.786;2023-04-24T12:53:20;1.20;;;1.10;;
10874;SDS011;5490;52.200;8.786;2023-04-24T12:55:47;0.87;;;0.80;;
10874;SDS011;5490;52.200;8.786;2023-04-24T12:58:18;1.43;;;1.20;;
10874;SDS011;5490;52.200;8.786;2023-04-24T13:00:45;1.50;;;1.07;;
10874;SDS011;5490;52.200;8.786;2023-04-24T13:03:13;1.53;;;1.23;;
10874;SDS011;5490;52.200;8.786;2023-04-24T13:05:41;1.33;;;1.13;;
10874;SDS011;5490;52.200;8.786;2023-04-24T13:08:10;1.33;;;0.93;;
10874;SDS011;5490;52.200;8.786;2023-04-24T13:10:38;3.80;;;1.43;;
10874;SDS011;5490;52.200;8.786;2023-04-24T13:13:05;1.20;;;1.10;;
10874;SDS011;5490;52.200;8.786;2023-04-24T13:15:32;1.73;;;1.37;;
10874;SDS011;5490;52.200;8.786;2023-04-24T13:17:59;1.40;;;1.30;;
10874;SDS011;5490;52.200;8.786;2023-04-24T13:20:27;3.22;;;1.90;;
10874;SDS011;5490;52.200;8.786;2023-04-24T13:22:54;2.00;;;1.50;;
10874;SDS011;5490;52.200;8.786;2023-04-24T13:25:24;2.53;;;1.40;;
10874;SDS011;5490;52.200;8.786;2023-04-24T13:27:51;3.33;;;1.88;;
10874;SDS011;5490;52.200;8.786;2023-04-24T13:30:23;1.83;;;1.73;;
10874;SDS011;5490;52.200;8.786;2023-04-24T13:32:50;1.73;;;1.63;;
10874;SDS011;5490;52.200;8.786;2023-04-24T13:35:17;1.25;;;1.15;;
10874;SDS011;5490;52.200;8.786;2023-04-24T13:37:54;1.33;;;1.20;;
10874;SDS011;5490;52.200;8.786;2023-04-24T13:40:21;3.53;;;1.77;;
10874;SDS011;5490;52.200;8.786;2023-04-24T13:42:50;1.57;;;1.33;;
10874;SDS011;5490;52.200;8.786;2023-04-24T13:45:22;1.27;;;1.17;;
10874;SDS011;5490;52.200;8.786;2023-04-24T13:47:56;2.28;;;1.92;;
10874;SDS011;5490;52.200;8.786;2023-04-24T13:50:25;6.10;;;1.67;;
10874;SDS011;5490;52.200;8.786;2023-04-24T13:53:09;3.33;;;1.63;;
10874;SDS011;5490;52.200;8.786;2023-04-24T13:56:11;2.10;;;1.40;;
10874;SDS011;5490;52.200;8.786;2023-04-24T13:58:44;2.33;;;1.90;;
10874;SDS011;5490;52.200;8.786;2023-04-24T14:01:16;2.50;;;1.70;;
10874;SDS011;5490;52.200;8.786;2023-04-24T14:03:46;2.03;;;1.70;;
10874;SDS011;5490;52.200;8.786;2023-04-24T14:06:13;2.20;;;1.40;;
10874;SDS011;5490;52.200;8.786;2023-04-24T14:08:41;3.87;;;2.07;;
10874;SDS011;5490;52.200;8.786;2023-04-24T14:11:08;1.90;;;1.70;;
10874;SDS011;5490;52.200;8.786;2023-04-24T14:13:35;3.80;;;2.07;;
10874;SDS011;5490;52.200;8.786;2023-04-24T14:16:03;4.05;;;2.08;;
10874;SDS011;5490;52.200;8.786;2023-04-24T14:18:31;2.17;;;1.65;;
10874;SDS011;5490;52.200;8.786;2023-04-24T14:21:00;4.35;;;2.00;;
10874;SDS011;5490;52.200;8.786;2023-04-24T14:23:27;3.33;;;1.90;;
10874;SDS011;5490;52.200;8.786;2023-04-24T14:25:56;2.03;;;1.60;;
10874;SDS011;5490;52.200;8.786;2023-04-24T14:28:24;1.95;;;1.65;;
10874;SDS011;5490;52.200;8.786;2023-04-24T14:30:52;5.13;;;1.43;;
10874;SDS011;5490;52.200;8.786;2023-04-24T14:33:27;3.75;;;1.65;;
10874;SDS011;5490;52.200;8.786;2023-04-24T14:36:25;3.37;;;1.70;;
10874;SDS011;5490;52.200;8.786;2023-04-24T14:39:07;3.97;;;2.17;;
10874;SDS011;5490;52.200;8.786;2023-04-24T14:41:44;2.00;;;1.77;;
10874;SDS011;5490;52.200;8.786;2023-04-24T14:44:14;2.05;;;1.85;;
10874;SDS011;5490;52.200;8.786;2023-04-24T14:46:43;2.30;;;1.70;;
10874;SDS011;5490;52.200;8.786;2023-04-24T14:49:10;2.03;;;1.83;;
10874;SDS011;5490;52.200;8.786;2023-04-24T14:51:43;2.47;;;1.90;;
10874;SDS011;5490;52.200;8.786;2023-04-24T14:54:20;3.47;;;1.88;;
10874;SDS011;5490;52.200;8.786;2023-04-24T14:56:51;2.35;;;2.08;;
10874;SDS011;5490;52.200;8.786;2023-04-24T14:59:25;5.60;;;2.40;;
10874;SDS011;5490;52.200;8.786;2023-04-24T15:01:56;5.33;;;2.43;;
10874;SDS011;5490;52.200;8.786;2023-04-24T15:04:40;5.73;;;2.50;;
10874;SDS011;5490;52.200;8.786;2023-04-24T15:07:10;2.53;;;2.08;;